Impacts METAR Board
IDs:

KLAS - Las Vegas/McCarran I, NV, US

Updated at: 2200 UTC 14 Aug 2018
Potential Impact None Slight Moderate High
Time 14/10Z 14/11Z 14/12Z 14/13Z 14/14Z 14/15Z 14/16Z 14/17Z 14/18Z 14/19Z 14/20Z 14/21Z 14/22Z
Temp89 88 86 86 86 90 93 96 99 101 103 105 105
Dewpt50 50 50 49 48 45 49 49 47 48 46 45 47
Altim29.81 29.81 29.82 29.83 29.85 29.86 29.87 29.88 29.87 29.86 29.84 29.80 29.78
VIS10 10 10 10 10 10 10 10 10 10 10 10 10
CIG-- -- -- -- -- -- -- -- -- -- -- -- --
CoverFEWFEWFEWFEWFEWFEWFEWSCTSCTSCTSCTSCTSCT
FltCatVFRVFRVFRVFRVFRVFRVFRVFRVFRVFRVFRVFRVFR
WX--------------------------
WDir1700021020000200805070140
WSpd3 0 0 6 3 0 0 3 5 8 4 6 8
WGst-- -- -- -- -- -- -- -- -- -- -- -- --
Raw hourly METARs
KLAS 140956Z 17003KT 10SM FEW180 32/10 A2981 RMK AO2 SLP060 T03170100
KLAS 141056Z 00000KT 10SM FEW180 31/10 A2981 RMK AO2 SLP062 T03110100
KLAS 141156Z 00000KT 10SM FEW200 30/10 A2982 RMK AO2 SLP063 T03000100 10350 20300 53000
KLAS 141256Z 21006KT 10SM FEW200 30/09 A2983 RMK AO2 SLP066 T03000094
KLAS 141356Z 20003KT 10SM FEW200 30/09 A2985 RMK AO2 SLP075 T03000089
KLAS 141456Z 00000KT 10SM FEW200 32/07 A2986 RMK AO2 SLP080 T03220072 53016
KLAS 141556Z 00000KT 10SM FEW200 34/09 A2987 RMK AO2 SLP082 T03390094
KLAS 141656Z 02003KT 10SM FEW150 SCT250 36/09 A2988 RMK AO2 SLP084 T03560094
KLAS 141756Z VRB05KT 10SM FEW150 SCT250 37/08 A2987 RMK AO2 SLP083 T03720083 10372 20294 50003
KLAS 141856Z 08008KT 10SM SCT150 SCT250 38/09 A2986 RMK AO2 SLP078 ACC N-E TCU DSNT S T03830089
KLAS 141956Z 05004KT 10SM SCT150 SCT250 39/08 A2984 RMK AO2 SLP069 CB DSNT N AND SW T03940078
KLAS 142056Z 07006KT 10SM FEW100 SCT150 SCT250 41/07 A2980 RMK AO2 LTG DSNT SE AND S AND NW SLP058 CB DSNT S AND NW T04060072 58022
KLAS 142156Z 14008KT 10SM FEW100CB SCT150 SCT250 41/08 A2978 RMK AO2 LTG DSNT SE AND S SLP051 CB VC E-S SH VC E-S T04060083



Page loaded:  22:01 UTC  |   03:01 PM Pacific  |   04:01 PM Mountain  |   05:01 PM Central  |   06:01 PM Eastern

 

ADVISORIES

FORECASTS

FORECASTS

OBSERVATIONS

USER TOOLS

ABOUT US